Time;durP1;ratioP1;P1;durP2;ratioP2;P2;SDS_P1;SDS_P2;PMS_P1;PMS_P2;Temp;Humidity;BMP_temperature;BMP_pressure;BME280_temperature;BME280_humidity;BME280_pressure;Samples;Min_cycle;Max_cycle;Signal;HPM_P1;HPM_P2
2021/10/18 00:00:32;;;;;;;9.48;4.78;;;;;;;6.72;53.66;100872.78;1751331;80;21475;-56
2021/10/18 00:02:58;;;;;;;11.83;5.50;;;;;;;6.71;53.57;100871.13;1752055;80;21095;-56
2021/10/18 00:05:26;;;;;;;15.32;5.28;;;;;;;6.72;53.55;100875.41;1756426;79;21093;-58
2021/10/18 00:07:54;;;;;;;8.08;4.53;;;;;;;6.73;53.59;100874.96;1754327;80;21074;-57
2021/10/18 00:10:20;;;;;;;12.20;5.20;;;;;;;6.70;53.66;100868.95;1757754;79;21055;-57
2021/10/18 00:12:49;;;;;;;13.22;5.45;;;;;;;6.71;53.62;100871.13;1758836;80;21043;-57
2021/10/18 00:15:17;;;;;;;10.95;5.87;;;;;;;6.69;53.41;100867.72;1752106;79;21031;-56
2021/10/18 00:17:44;;;;;;;12.90;5.42;;;;;;;6.67;53.50;100862.61;1751254;80;21016;-57
2021/10/18 00:20:13;;;;;;;10.30;4.67;;;;;;;6.64;53.48;100855.38;1752733;79;21072;-57
2021/10/18 00:22:42;;;;;;;11.15;5.05;;;;;;;6.64;53.60;100860.16;1754156;80;21058;-57
2021/10/18 00:25:09;;;;;;;12.40;6.03;;;;;;;6.62;53.66;100860.72;1753316;79;22043;-58
2021/10/18 00:27:37;;;;;;;9.28;5.28;;;;;;;6.61;53.61;100853.79;1766554;80;21138;-57
2021/10/18 00:30:07;;;;;;;9.50;5.10;;;;;;;6.62;53.70;100857.23;1761762;79;21070;-57
2021/10/18 00:32:35;;;;;;;10.10;4.50;;;;;;;6.61;53.71;100853.79;1755809;80;21047;-57
2021/10/18 00:35:01;;;;;;;12.70;5.22;;;;;;;6.60;53.76;100857.32;1753845;80;21066;-57
2021/10/18 00:37:30;;;;;;;10.30;5.20;;;;;;;6.59;53.80;100854.79;1751765;80;21070;-57
2021/10/18 00:39:56;;;;;;;8.75;5.12;;;;;;;6.61;53.84;100850.34;1757732;80;21094;-57
2021/10/18 00:42:22;;;;;;;11.18;5.17;;;;;;;6.64;53.75;100854.06;1753413;79;22261;-57
2021/10/18 00:44:50;;;;;;;9.75;4.53;;;;;;;6.63;53.71;100851.92;1758496;79;21513;-57
2021/10/18 00:47:18;;;;;;;10.88;5.37;;;;;;;6.62;53.74;100852.01;1759185;79;21078;-57
2021/10/18 00:49:45;;;;;;;8.40;4.35;;;;;;;6.62;53.80;100850.70;1765075;79;21993;-57
2021/10/18 00:52:12;;;;;;;9.75;5.15;;;;;;;6.61;53.93;100858.19;1758676;80;21058;-57
2021/10/18 00:54:39;;;;;;;14.85;5.45;;;;;;;6.59;53.83;100853.04;1765987;79;22463;-57
2021/10/18 00:57:05;;;;;;;8.75;5.37;;;;;;;6.57;53.89;100850.95;1771496;80;21055;-57
2021/10/18 00:59:33;;;;;;;11.68;5.72;;;;;;;6.55;53.97;100841.05;1709998;82;21022;-57
2021/10/18 01:01:59;;;;;;;12.98;4.62;;;;;;;6.54;54.04;100855.07;1708014;82;21130;-57
2021/10/18 01:04:26;;;;;;;8.48;4.75;;;;;;;6.50;54.03;100846.53;1707138;82;21059;-58
2021/10/18 01:06:54;;;;;;;8.70;4.08;;;;;;;6.51;54.05;100854.76;1730556;80;21026;-56
2021/10/18 01:09:21;;;;;;;11.60;5.00;;;;;;;6.51;54.11;100847.39;1764435;79;21686;-56
2021/10/18 01:11:49;;;;;;;9.60;4.60;;;;;;;6.54;54.20;100852.89;1767299;79;21030;-57
2021/10/18 01:14:15;;;;;;;12.82;5.70;;;;;;;6.51;54.12;100849.53;1766513;79;21151;-57
2021/10/18 01:16:42;;;;;;;11.48;5.22;;;;;;;6.50;54.07;100856.98;1772161;80;21042;-57
2021/10/18 01:19:15;;;;;;;9.63;5.05;;;;;;;6.46;54.19;100847.64;1759982;79;21050;-57
2021/10/18 01:21:42;;;;;;;10.25;5.47;;;;;;;6.45;54.32;100839.41;1763590;79;21037;-57
2021/10/18 01:24:09;;;;;;;10.60;5.53;;;;;;;6.45;54.35;100843.33;1730181;80;21615;-57
2021/10/18 01:26:36;;;;;;;10.03;5.28;;;;;;;6.44;54.37;100845.58;1767119;79;21126;-57
2021/10/18 01:29:03;;;;;;;10.53;5.17;;;;;;;6.40;54.40;100838.81;1775075;79;21097;-57
2021/10/18 01:31:30;;;;;;;10.25;4.85;;;;;;;6.37;54.47;100840.77;1763911;80;21035;-57
2021/10/18 01:33:56;;;;;;;9.38;4.62;;;;;;;6.33;54.55;100839.62;1707345;83;21050;-57
2021/10/18 01:36:22;;;;;;;10.38;5.35;;;;;;;6.33;54.69;100846.63;1768249;80;21010;-57
2021/10/18 01:38:49;;;;;;;14.33;5.70;;;;;;;6.32;54.72;100841.01;1766601;79;21988;-57
2021/10/18 01:41:15;;;;;;;11.35;5.20;;;;;;;6.32;54.80;100841.88;1766894;80;21069;-57
2021/10/18 01:43:42;;;;;;;12.35;5.72;;;;;;;6.32;54.81;100842.31;1758705;79;21430;-57
2021/10/18 01:46:08;;;;;;;11.63;5.72;;;;;;;6.31;54.85;100848.02;1759473;80;21047;-57
2021/10/18 01:48:35;;;;;;;9.55;5.20;;;;;;;6.31;54.87;100846.70;1761056;80;21543;-57
2021/10/18 01:51:01;;;;;;;10.45;5.25;;;;;;;6.32;54.91;100844.48;1764231;79;21133;-57
2021/10/18 01:53:27;;;;;;;15.35;5.97;;;;;;;6.32;54.92;100843.18;1762940;79;21043;-57
2021/10/18 01:55:54;;;;;;;11.95;4.90;;;;;;;6.32;54.88;100852.33;1759524;80;21019;-56
2021/10/18 01:58:20;;;;;;;9.73;5.35;;;;;;;6.30;54.92;100857.24;1764135;80;21101;-57
2021/10/18 02:00:46;;;;;;;10.13;6.35;;;;;;;6.28;55.04;100858.62;1763327;80;21863;-57
2021/10/18 02:03:13;;;;;;;13.30;5.67;;;;;;;6.24;55.17;100853.67;1760257;79;22397;-57
2021/10/18 02:05:40;;;;;;;12.05;5.53;;;;;;;6.23;55.20;100851.50;1761672;80;21022;-57
2021/10/18 02:08:07;;;;;;;9.38;4.87;;;;;;;6.24;55.21;100844.53;1761718;79;21058;-57
2021/10/18 02:10:34;;;;;;;13.30;5.97;;;;;;;6.24;55.18;100834.91;1765168;79;21059;-57
2021/10/18 02:13:01;;;;;;;9.98;5.10;;;;;;;6.25;55.21;100830.52;1764619;79;21002;-57
2021/10/18 02:15:30;;;;;;;12.35;4.97;;;;;;;6.27;55.25;100834.75;1699324;82;21161;-58
2021/10/18 02:17:57;;;;;;;10.30;5.30;;;;;;;6.29;55.20;100836.81;1708246;82;21016;-57
2021/10/18 02:20:24;;;;;;;16.37;5.42;;;;;;;6.29;55.17;100835.50;1769094;79;21086;-56
2021/10/18 02:22:50;;;;;;;11.97;5.30;;;;;;;6.27;55.15;100829.52;1764563;79;21407;-56
2021/10/18 02:25:17;;;;;;;9.88;5.12;;;;;;;6.28;55.33;100832.97;1765551;79;21067;-56
2021/10/18 02:27:45;;;;;;;13.05;4.85;;;;;;;6.30;55.35;100830.66;1759250;79;21193;-56
2021/10/18 02:30:11;;;;;;;12.93;5.70;;;;;;;6.29;55.36;100835.98;1764259;79;21531;-56
2021/10/18 02:32:40;;;;;;;9.35;4.97;;;;;;;6.27;55.23;100836.05;1762296;79;21102;-56
2021/10/18 02:35:08;;;;;;;11.80;4.78;;;;;;;6.28;55.28;100835.11;1765557;79;21038;-56
2021/10/18 02:37:34;;;;;;;12.73;5.28;;;;;;;6.31;55.24;100835.42;1762941;79;21070;-56
2021/10/18 02:40:01;;;;;;;11.22;5.37;;;;;;;6.32;55.32;100834.47;1761140;79;21132;-56
2021/10/18 02:42:29;;;;;;;15.95;5.28;;;;;;;6.31;55.47;100831.50;1764796;79;21020;-56
2021/10/18 02:44:55;;;;;;;10.32;5.10;;;;;;;6.30;55.51;100828.05;1763080;80;21043;-56
2021/10/18 02:47:22;;;;;;;11.00;5.42;;;;;;;6.31;55.57;100836.25;1731203;79;21197;-56
2021/10/18 02:49:48;;;;;;;11.00;5.08;;;;;;;6.32;55.51;100834.47;1724170;80;21619;-56
2021/10/18 02:52:15;;;;;;;10.88;6.20;;;;;;;6.35;55.55;100841.31;1727413;80;21128;-56
2021/10/18 02:54:41;;;;;;;9.50;4.62;;;;;;;6.34;55.48;100837.88;1719886;80;21133;-56
2021/10/18 02:57:07;;;;;;;11.53;6.08;;;;;;;6.37;55.50;100832.48;1722135;80;21448;-56
2021/10/18 03:01:18;;;;;;;11.63;5.05;;;;;;;6.46;55.37;100824.58;1797978;78;22317;-57
2021/10/18 03:03:45;;;;;;;12.88;5.50;;;;;;;6.46;55.46;100828.50;1779710;78;21013;-58
2021/10/18 03:06:12;;;;;;;8.80;4.37;;;;;;;6.51;55.42;100827.31;1776725;78;21095;-57
2021/10/18 03:08:39;;;;;;;9.20;4.85;;;;;;;6.57;55.30;100824.80;1779065;78;21705;-58
2021/10/18 03:11:05;;;;;;;9.90;4.87;;;;;;;6.60;55.30;100825.11;1780199;78;21086;-59
2021/10/18 03:13:32;;;;;;;9.88;5.00;;;;;;;6.62;55.34;100825.42;1772226;78;21571;-58
2021/10/18 03:16:00;;;;;;;9.23;4.62;;;;;;;6.65;55.16;100821.77;1766938;80;20978;-58
2021/10/18 03:18:26;;;;;;;8.18;4.67;;;;;;;6.68;55.18;100818.98;1774218;78;21984;-58
2021/10/18 03:20:52;;;;;;;9.30;4.90;;;;;;;6.72;55.17;100814.42;1772157;80;21034;-57
2021/10/18 03:23:20;;;;;;;8.68;4.65;;;;;;;6.79;55.30;100820.97;1770407;80;21030;-58
2021/10/18 03:25:48;;;;;;;11.20;4.65;;;;;;;6.84;55.10;100811.09;1774778;80;21089;-57
2021/10/18 03:28:14;;;;;;;12.25;4.85;;;;;;;6.85;54.98;100803.16;1773201;80;21342;-58
2021/10/18 03:30:40;;;;;;;7.70;4.30;;;;;;;6.88;55.04;100810.00;1776818;80;21113;-58
2021/10/18 03:33:07;;;;;;;9.93;4.60;;;;;;;6.92;55.03;100806.27;1775657;80;21773;-58
2021/10/18 03:35:34;;;;;;;9.78;4.67;;;;;;;6.97;55.02;100807.31;1780754;80;20999;-58
2021/10/18 03:38:01;;;;;;;11.38;4.75;;;;;;;7.00;55.00;100807.14;1779822;80;21052;-58
2021/10/18 03:40:27;;;;;;;8.20;4.47;;;;;;;7.02;54.96;100809.19;1773674;79;21587;-58
2021/10/18 03:42:54;;;;;;;10.00;4.47;;;;;;;7.02;54.77;100803.48;1774559;80;21524;-58
2021/10/18 03:45:20;;;;;;;11.93;4.87;;;;;;;7.03;54.74;100803.88;1778777;78;21532;-58
2021/10/18 03:47:47;;;;;;;10.48;4.72;;;;;;;7.05;54.60;100799.86;1781972;80;21038;-58
2021/10/18 03:50:15;;;;;;;9.15;4.92;;;;;;;7.06;54.65;100807.63;1776688;79;21121;-58
2021/10/18 03:52:42;;;;;;;9.13;4.20;;;;;;;7.09;54.47;100804.44;1782457;80;21070;-58
2021/10/18 03:55:09;;;;;;;7.83;4.60;;;;;;;7.10;54.42;100801.73;1773993;78;21130;-58
2021/10/18 03:57:35;;;;;;;10.95;4.50;;;;;;;7.10;54.44;100797.81;1772793;78;21011;-58
2021/10/18 04:00:04;;;;;;;10.25;4.62;;;;;;;7.11;54.50;100796.03;1768166;79;21073;-58
2021/10/18 04:02:33;;;;;;;8.85;4.67;;;;;;;7.11;54.50;100788.17;1763183;80;21101;-58
2021/10/18 04:05:00;;;;;;;12.78;5.10;;;;;;;7.14;54.60;100798.47;1766183;80;21059;-58
2021/10/18 04:07:26;;;;;;;9.85;4.65;;;;;;;7.16;54.40;100801.39;1765717;80;21134;-58
2021/10/18 04:09:55;;;;;;;9.53;5.03;;;;;;;7.17;54.44;100789.13;1761752;80;21012;-58
2021/10/18 04:12:21;;;;;;;9.63;4.78;;;;;;;7.18;54.59;100789.05;1765489;80;21038;-58
2021/10/18 04:14:47;;;;;;;10.23;4.70;;;;;;;7.21;54.45;100790.63;1761357;80;21117;-58
2021/10/18 04:17:14;;;;;;;11.35;4.62;;;;;;;7.23;54.43;100788.30;1762270;80;21082;-58
2021/10/18 04:19:40;;;;;;;8.23;4.50;;;;;;;7.27;54.47;100788.12;1759032;79;21052;-58
2021/10/18 04:22:07;;;;;;;11.85;4.83;;;;;;;7.28;54.51;100791.10;1760819;80;21441;-58
2021/10/18 04:24:33;;;;;;;7.42;4.20;;;;;;;7.30;54.62;100797.11;1762445;80;21634;-58
2021/10/18 04:27:01;;;;;;;7.00;3.83;;;;;;;7.33;54.48;100802.13;1768131;80;21110;-58
2021/10/18 04:29:30;;;;;;;8.00;4.67;;;;;;;7.31;54.32;100798.77;1762507;80;21046;-58
2021/10/18 04:31:59;;;;;;;11.45;4.87;;;;;;;7.29;54.24;100804.09;1763887;80;21827;-58
2021/10/18 04:34:26;;;;;;;8.78;4.53;;;;;;;7.27;54.33;100800.73;1766279;80;21138;-57
2021/10/18 04:36:53;;;;;;;10.55;4.42;;;;;;;7.24;54.47;100797.82;1758754;80;21508;-58
2021/10/18 04:39:20;;;;;;;9.30;4.58;;;;;;;7.23;54.38;100811.86;1763230;80;21059;-58
2021/10/18 04:41:48;;;;;;;9.45;4.53;;;;;;;7.22;54.50;100806.23;1763455;79;21094;-58
2021/10/18 04:44:14;;;;;;;10.82;5.15;;;;;;;7.22;54.56;100809.33;1771868;79;21070;-58
2021/10/18 04:46:41;;;;;;;12.80;4.85;;;;;;;7.20;54.60;100808.11;1757702;80;21054;-58
2021/10/18 04:49:08;;;;;;;13.68;4.87;;;;;;;7.20;54.84;100806.80;1765470;80;21101;-58
2021/10/18 04:51:35;;;;;;;11.93;4.72;;;;;;;7.23;54.82;100807.94;1762721;79;21047;-60
2021/10/18 04:54:01;;;;;;;8.75;4.70;;;;;;;7.28;54.74;100814.66;1762240;80;21071;-58
2021/10/18 04:56:27;;;;;;;10.88;4.50;;;;;;;7.27;54.61;100813.83;1763867;80;22008;-57
2021/10/18 04:58:54;;;;;;;9.68;3.95;;;;;;;7.30;54.67;100815.44;1767181;79;21068;-56
2021/10/18 05:01:20;;;;;;;12.78;4.58;;;;;;;7.32;54.64;100820.94;1765573;80;21031;-59
2021/10/18 05:03:47;;;;;;;10.23;4.53;;;;;;;7.33;54.69;100827.00;1764786;80;21158;-56
2021/10/18 05:06:13;;;;;;;7.58;4.45;;;;;;;7.33;54.64;100829.18;1721973;82;21014;-57
2021/10/18 05:08:40;;;;;;;8.85;4.20;;;;;;;7.35;54.65;100827.30;1700691;82;21152;-57
2021/10/18 05:11:07;;;;;;;11.90;4.55;;;;;;;7.36;54.69;100825.52;1758492;79;21008;-56
2021/10/18 05:13:33;;;;;;;12.43;4.85;;;;;;;7.37;54.67;100824.59;1766598;80;21047;-57
2021/10/18 05:16:00;;;;;;;9.63;4.67;;;;;;;7.38;54.71;100827.13;1761331;79;21592;-56
2021/10/18 05:18:26;;;;;;;9.48;4.25;;;;;;;7.40;54.62;100826.56;1760599;80;21056;-56
2021/10/18 05:20:52;;;;;;;11.48;5.25;;;;;;;7.41;54.79;100824.78;1761121;80;21106;-56
2021/10/18 05:23:18;;;;;;;8.63;4.83;;;;;;;7.45;54.71;100830.22;1761483;80;20896;-56
2021/10/18 05:25:46;;;;;;;7.62;4.10;;;;;;;7.52;54.63;100835.46;1768791;79;21461;-56
2021/10/18 05:28:12;;;;;;;10.10;5.37;;;;;;;7.56;54.45;100840.87;1766817;79;22008;-56
2021/10/18 05:30:39;;;;;;;8.53;4.80;;;;;;;7.58;54.32;100844.27;1757471;79;21667;-56
2021/10/18 05:33:06;;;;;;;9.43;4.78;;;;;;;7.59;54.32;100847.24;1758423;80;21104;-56
2021/10/18 05:35:32;;;;;;;9.88;4.33;;;;;;;7.60;54.29;100847.63;1762051;80;21502;-56
2021/10/18 05:37:59;;;;;;;10.18;4.67;;;;;;;7.59;54.33;100851.17;1770040;80;21074;-56
2021/10/18 05:40:26;;;;;;;9.98;4.45;;;;;;;7.59;54.39;100851.64;1758507;80;21015;-56
2021/10/18 05:42:52;;;;;;;10.85;5.17;;;;;;;7.60;54.41;100853.34;1765494;79;21055;-57
2021/10/18 05:45:19;;;;;;;8.83;4.12;;;;;;;7.63;54.34;100859.68;1768439;80;21129;-57
2021/10/18 05:47:58;;;;;;;8.68;4.60;;;;;;;7.65;54.35;100864.83;1764624;80;21524;-56
2021/10/18 05:50:27;;;;;;;15.85;4.47;;;;;;;7.67;54.29;100868.22;1759478;79;21152;-57
2021/10/18 05:52:53;;;;;;;10.05;4.37;;;;;;;7.68;54.31;100863.34;1755389;80;21102;-57
2021/10/18 05:55:20;;;;;;;10.78;5.37;;;;;;;7.71;54.22;100865.78;1759908;79;21051;-57
2021/10/18 05:57:52;;;;;;;8.95;4.62;;;;;;;7.71;54.20;100867.92;1753890;80;22209;-57
2021/10/18 06:00:18;;;;;;;9.33;4.15;;;;;;;7.73;54.33;100867.39;1764407;80;21078;-57
2021/10/18 06:02:45;;;;;;;6.62;4.17;;;;;;;7.75;54.05;100867.27;1764973;79;21039;-57
2021/10/18 06:05:11;;;;;;;8.60;4.08;;;;;;;7.76;54.25;100863.25;1735121;80;21077;-56
2021/10/18 06:07:38;;;;;;;11.05;4.83;;;;;;;7.83;54.11;100868.13;1753363;80;21109;-56
2021/10/18 06:10:06;;;;;;;8.63;4.47;;;;;;;7.86;54.22;100866.16;1757591;79;21924;-57
2021/10/18 06:12:33;;;;;;;7.97;4.33;;;;;;;7.88;54.12;100866.90;1753168;79;21000;-57
2021/10/18 06:14:59;;;;;;;7.58;4.45;;;;;;;7.93;54.20;100878.41;1761227;80;22454;-57
2021/10/18 06:17:27;;;;;;;10.08;4.53;;;;;;;7.97;54.35;100874.69;1759612;80;21090;-57
2021/10/18 06:19:53;;;;;;;14.53;4.97;;;;;;;8.02;54.24;100874.38;1728422;80;21512;-57
2021/10/18 06:22:20;;;;;;;9.20;4.30;;;;;;;8.07;54.44;100877.56;1746747;80;21082;-58
2021/10/18 06:24:46;;;;;;;9.68;4.67;;;;;;;8.12;54.25;100882.05;1758075;79;21055;-58
2021/10/18 06:27:13;;;;;;;12.90;4.35;;;;;;;8.17;54.21;100880.85;1762187;80;21575;-58
2021/10/18 06:29:39;;;;;;;10.63;4.45;;;;;;;8.21;54.21;100889.36;1758546;80;21062;-58
2021/10/18 06:32:06;;;;;;;8.68;4.40;;;;;;;8.24;53.97;100885.25;1755778;80;21093;-55
2021/10/18 06:34:33;;;;;;;12.07;4.85;;;;;;;8.25;54.02;100881.66;1758743;80;21165;-55
2021/10/18 06:36:59;;;;;;;10.48;5.08;;;;;;;8.28;54.00;100886.72;1760098;80;21047;-56
2021/10/18 06:39:26;;;;;;;10.30;5.37;;;;;;;8.30;54.28;100899.73;1738164;80;21030;-54
2021/10/18 06:41:52;;;;;;;10.82;5.67;;;;;;;8.32;54.17;100895.23;1739910;80;21058;-56
2021/10/18 06:44:18;;;;;;;10.30;5.20;;;;;;;8.33;54.30;100892.52;1762329;80;21133;-56
2021/10/18 06:46:45;;;;;;;10.08;4.62;;;;;;;8.37;54.46;100899.27;1762504;80;21218;-56
2021/10/18 06:49:11;;;;;;;8.95;4.70;;;;;;;8.38;54.21;100894.86;1744104;80;21063;-56
2021/10/18 06:51:52;;;;;;;9.58;4.92;;;;;;;8.40;54.35;100896.91;1759831;79;21547;-56
2021/10/18 06:54:08;;;;;;;10.03;4.60;;;;;;;8.42;54.25;100895.51;1741068;80;21071;-57
2021/10/18 06:56:34;;;;;;;12.55;5.85;;;;;;;8.42;54.46;100900.75;1756783;80;21007;-56
2021/10/18 06:59:01;;;;;;;9.03;5.37;;;;;;;8.44;54.40;100899.77;1742580;80;21098;-57
2021/10/18 07:01:27;;;;;;;9.65;5.30;;;;;;;8.48;54.25;100906.97;1762600;80;21505;-57
2021/10/18 07:03:53;;;;;;;10.28;5.67;;;;;;;8.50;54.07;100902.46;1766071;80;21096;-59
2021/10/18 07:06:20;;;;;;;10.50;5.70;;;;;;;8.51;54.42;100898.91;1742961;80;21034;-57
2021/10/18 07:08:47;;;;;;;9.50;4.83;;;;;;;8.52;54.40;100894.02;1765052;80;21053;-56
2021/10/18 07:11:13;;;;;;;10.75;5.58;;;;;;;8.55;54.50;100895.14;1772497;80;21140;-55
2021/10/18 07:13:39;;;;;;;11.35;5.28;;;;;;;8.58;54.49;100899.36;1771885;80;21066;-56
2021/10/18 07:16:06;;;;;;;12.30;5.28;;;;;;;8.60;54.22;100900.94;1732808;80;21098;-55
2021/10/18 07:18:32;;;;;;;10.95;5.40;;;;;;;8.64;54.24;100897.20;1773067;80;21097;-55
2021/10/18 07:20:58;;;;;;;14.58;5.83;;;;;;;8.67;54.07;100899.59;1763850;79;21104;-55
2021/10/18 07:23:25;;;;;;;11.83;5.20;;;;;;;8.69;53.98;100892.94;1774995;79;21527;-56
2021/10/18 07:25:51;;;;;;;9.35;5.80;;;;;;;8.71;54.25;100893.71;1768628;80;21112;-56
2021/10/18 07:28:18;;;;;;;11.45;5.28;;;;;;;8.75;54.22;100896.50;1769617;80;21038;-56
2021/10/18 07:30:45;;;;;;;9.20;4.47;;;;;;;8.78;54.21;100898.09;1734964;80;21094;-57
2021/10/18 07:33:12;;;;;;;10.80;5.53;;;;;;;8.82;54.15;100897.77;1733432;80;21531;-57
2021/10/18 07:35:38;;;;;;;10.25;4.70;;;;;;;8.86;54.13;100897.10;1765217;79;21482;-57
2021/10/18 07:38:06;;;;;;;8.85;4.90;;;;;;;8.86;54.16;100895.79;1766174;79;21413;-57
2021/10/18 07:40:32;;;;;;;9.70;5.78;;;;;;;8.87;53.92;100891.75;1766195;79;21101;-56
2021/10/18 07:43:01;;;;;;;9.78;4.67;;;;;;;8.88;54.16;100890.00;1764141;80;21559;-57
2021/10/18 07:45:27;;;;;;;10.58;5.15;;;;;;;8.92;54.32;100887.05;1766938;79;21061;-55
2021/10/18 07:47:54;;;;;;;10.63;4.72;;;;;;;8.95;53.91;100883.40;1763829;80;21159;-57
2021/10/18 07:50:20;;;;;;;8.78;4.70;;;;;;;9.01;53.86;100892.20;1738449;80;21125;-57
2021/10/18 07:54:13;;;;;;;13.45;5.92;;;;;;;9.14;53.79;100891.37;1795900;77;21851;-56
2021/10/18 07:56:39;;;;;;;11.12;5.22;;;;;;;9.11;53.65;100881.45;1751689;80;21613;-57
2021/10/18 07:59:06;;;;;;;11.97;5.72;;;;;;;9.18;53.69;100883.66;1749700;80;21176;-55
2021/10/18 08:01:32;;;;;;;9.78;4.92;;;;;;;9.22;53.56;100899.59;1769908;80;21004;-56
2021/10/18 08:03:58;;;;;;;8.65;4.85;;;;;;;9.24;53.26;100889.34;1773563;80;20972;-55
2021/10/18 08:06:25;;;;;;;10.32;5.15;;;;;;;9.26;53.67;100893.19;1749744;80;20990;-56
2021/10/18 08:08:53;;;;;;;12.63;6.00;;;;;;;9.31;53.67;100897.66;1749251;79;21115;-56
2021/10/18 08:11:20;;;;;;;10.43;5.72;;;;;;;9.36;53.53;100892.94;1767165;79;21158;-57
2021/10/18 08:13:46;;;;;;;9.30;5.78;;;;;;;9.40;53.28;100894.44;1775072;78;21024;-56
2021/10/18 08:16:15;;;;;;;11.93;6.60;;;;;;;9.44;52.93;100891.95;1774808;79;21030;-56
2021/10/18 08:18:41;;;;;;;11.90;6.55;;;;;;;9.47;52.78;100894.37;1744289;80;21552;-57
2021/10/18 08:21:09;;;;;;;10.50;6.12;;;;;;;9.51;52.61;100894.18;1765782;79;21065;-56
2021/10/18 08:23:37;;;;;;;9.90;6.15;;;;;;;9.52;52.94;100886.20;1751552;80;21077;-57
2021/10/18 08:26:04;;;;;;;13.08;6.47;;;;;;;9.57;52.73;100887.20;1772729;79;21070;-57
2021/10/18 08:28:30;;;;;;;9.15;5.25;;;;;;;9.63;52.95;100887.64;1748608;80;21011;-58
2021/10/18 08:30:57;;;;;;;12.47;6.83;;;;;;;9.72;52.68;100887.95;1748820;80;21756;-57
2021/10/18 08:33:24;;;;;;;10.20;5.83;;;;;;;9.79;52.45;100881.33;1750331;80;21120;-57
2021/10/18 08:35:52;;;;;;;12.88;6.72;;;;;;;9.88;52.45;100883.78;1770253;79;21082;-56
2021/10/18 08:45:52;;;;;;;10.45;6.20;;;;;;;10.21;51.82;100882.73;1745034;79;21105;-56
2021/10/18 08:48:19;;;;;;;13.60;6.65;;;;;;;10.31;51.80;100876.84;1765829;79;21105;-57
2021/10/18 08:50:47;;;;;;;11.63;6.47;;;;;;;10.39;51.13;100887.70;1769945;79;21069;-57
2021/10/18 08:53:14;;;;;;;10.98;6.28;;;;;;;10.42;50.89;100883.50;1766167;78;21077;-58
2021/10/18 08:55:41;;;;;;;10.82;6.20;;;;;;;10.43;50.83;100881.73;1749336;80;21513;-55
2021/10/18 08:58:08;;;;;;;11.20;6.50;;;;;;;10.40;51.01;100878.35;1758965;79;22211;-55
2021/10/18 09:00:48;;;;;;;14.98;6.28;;;;;;;10.39;50.88;100881.13;1759266;79;21075;-56
2021/10/18 09:03:31;;;;;;;10.90;6.17;;;;;;;10.38;50.65;100875.00;1734080;80;21067;-56
2021/10/18 09:06:23;;;;;;;9.18;5.83;;;;;;;10.38;50.92;100879.42;1752492;80;21070;-56
2021/10/18 09:08:53;;;;;;;13.18;7.28;;;;;;;10.40;50.70;100873.09;1746541;80;21581;-56
2021/10/18 09:11:23;;;;;;;10.90;7.20;;;;;;;10.39;50.80;100876.69;1763097;79;21101;-56
2021/10/18 09:13:56;;;;;;;14.07;6.90;;;;;;;10.40;50.82;100870.45;1764722;79;21071;-56
2021/10/18 09:16:42;;;;;;;11.43;6.55;;;;;;;10.44;50.71;100871.11;1752362;80;22270;-56
2021/10/18 09:19:26;;;;;;;12.98;7.47;;;;;;;10.47;50.77;100880.55;1739111;80;21567;-55
2021/10/18 09:21:57;;;;;;;11.88;6.40;;;;;;;10.51;50.70;100870.19;1752581;80;21031;-56
2021/10/18 09:24:36;;;;;;;12.18;6.47;;;;;;;10.56;50.61;100870.21;1759781;79;21106;-56
2021/10/18 09:27:08;;;;;;;12.40;6.97;;;;;;;10.62;50.59;100864.14;1763216;79;21086;-56
2021/10/18 09:29:45;;;;;;;10.53;6.55;;;;;;;10.70;50.24;100866.57;1757020;79;21145;-56
2021/10/18 09:32:27;;;;;;;11.30;6.67;;;;;;;10.73;50.13;100856.31;1751211;80;21051;-57
2021/10/18 09:35:08;;;;;;;12.88;6.45;;;;;;;10.75;49.62;100866.24;1759310;79;21017;-57
2021/10/18 09:37:41;;;;;;;12.15;7.55;;;;;;;10.75;50.00;100863.13;1755045;80;21027;-56
2021/10/18 09:40:09;;;;;;;17.32;6.47;;;;;;;10.82;50.33;100864.00;1737982;80;21887;-55
2021/10/18 09:42:36;;;;;;;13.48;6.25;;;;;;;10.95;50.24;100864.30;1742228;80;21019;-56
2021/10/18 10:57:01;;;;;;;12.75;5.72;;;;;;;11.88;46.08;100810.70;1669334;84;21114;-55
2021/10/18 10:59:24;;;;;;;12.43;5.53;;;;;;;11.91;46.66;100809.63;1693216;82;21062;-55
2021/10/18 11:02:09;;;;;;;9.60;6.17;;;;;;;12.00;47.07;100805.42;1671995;84;22246;-55
2021/10/18 11:04:38;;;;;;;14.13;6.40;;;;;;;12.09;46.33;100807.34;1738163;80;23302;-55
2021/10/18 11:07:18;;;;;;;14.70;5.85;;;;;;;12.13;46.21;100806.13;1736218;80;21059;-55
2021/10/18 11:09:50;;;;;;;9.70;5.92;;;;;;;12.17;45.95;100810.67;1698205;82;21061;-55
2021/10/18 11:12:28;;;;;;;12.05;5.87;;;;;;;12.15;46.08;100805.52;1702903;82;22324;-56
2021/10/18 11:15:07;;;;;;;9.48;5.35;;;;;;;12.16;46.13;100801.09;1731906;80;21079;-56
2021/10/18 11:17:35;;;;;;;11.75;5.78;;;;;;;12.19;46.41;100798.22;1740776;80;21384;-56
2021/10/18 11:20:16;;;;;;;9.88;5.45;;;;;;;12.23;45.75;100795.68;1737496;80;21075;-56
2021/10/18 11:22:47;;;;;;;10.90;5.62;;;;;;;12.24;45.38;100801.33;1698717;82;20922;-57
2021/10/18 11:25:26;;;;;;;10.72;5.85;;;;;;;12.19;45.59;100795.58;1706530;82;20935;-57
2021/10/18 11:28:03;;;;;;;8.90;5.15;;;;;;;12.14;45.75;100798.58;1704369;82;21289;-57
2021/10/18 11:30:32;;;;;;;9.85;4.97;;;;;;;12.14;45.53;100788.48;1671474;82;21164;-57
2021/10/18 11:33:14;;;;;;;8.80;5.00;;;;;;;12.14;45.53;100797.27;1694965;82;21030;-57
2021/10/18 11:35:41;;;;;;;8.08;4.70;;;;;;;12.14;45.68;100808.27;1704811;82;21556;-56
2021/10/18 11:38:12;;;;;;;15.72;6.05;;;;;;;12.12;45.80;100791.28;1701095;82;21030;-56
2021/10/18 11:40:46;;;;;;;18.87;8.75;;;;;;;12.15;45.86;100792.33;1681451;82;21046;-57
2021/10/18 11:43:15;;;;;;;13.15;5.75;;;;;;;12.19;45.65;100787.17;1739203;80;21342;-57
2021/10/18 11:45:54;;;;;;;14.35;5.22;;;;;;;12.21;45.31;100787.89;1733352;80;21528;-57
2021/10/18 11:48:24;;;;;;;11.95;6.30;;;;;;;12.21;45.47;100779.14;1733103;82;21041;-56
2021/10/18 11:50:53;;;;;;;10.23;6.15;;;;;;;12.24;45.95;100787.64;1716380;81;21820;-57
2021/10/18 11:53:23;;;;;;;11.00;5.22;;;;;;;12.28;45.84;100781.63;1737038;79;21114;-57
2021/10/18 11:55:58;;;;;;;9.93;5.17;;;;;;;12.29;45.45;100776.73;1766527;79;21165;-57
2021/10/18 11:58:28;;;;;;;10.30;4.70;;;;;;;12.31;45.78;100777.92;1773627;78;21038;-56
2021/10/18 12:01:16;;;;;;;9.48;4.40;;;;;;;12.32;45.67;100781.73;1764910;79;21062;-57
2021/10/18 12:03:42;;;;;;;7.62;4.25;;;;;;;12.34;45.23;100781.61;1766434;79;21067;-58
2021/10/18 12:06:10;;;;;;;13.72;5.33;;;;;;;12.35;45.17;100781.48;1759419;79;21271;-56
2021/10/18 12:08:38;;;;;;;7.20;4.28;;;;;;;12.39;45.59;100779.43;1761718;80;21134;-56
2021/10/18 12:11:09;;;;;;;9.90;5.10;;;;;;;12.44;45.52;100777.28;1733536;80;21086;-56
2021/10/18 12:13:39;;;;;;;7.90;4.58;;;;;;;12.49;45.62;100781.70;1739899;80;21097;-57
2021/10/18 12:16:09;;;;;;;7.58;3.85;;;;;;;12.55;45.83;100780.35;1762938;79;21058;-57
2021/10/18 12:18:51;;;;;;;11.68;4.78;;;;;;;12.60;44.92;100773.72;1765640;79;21036;-56
2021/10/18 12:21:36;;;;;;;9.13;3.67;;;;;;;12.60;44.14;100775.04;1760147;80;22028;-57
2021/10/18 12:24:05;;;;;;;18.77;4.40;;;;;;;12.58;42.82;100786.22;1760602;80;21047;-56
2021/10/18 12:26:44;;;;;;;8.03;4.15;;;;;;;12.52;42.85;100779.28;1764942;80;21036;-56
2021/10/18 12:29:15;;;;;;;9.15;4.50;;;;;;;12.44;42.93;100780.75;1761918;80;21033;-56
2021/10/18 12:31:50;;;;;;;7.80;3.62;;;;;;;12.43;43.26;100777.74;1761649;79;21111;-57
2021/10/18 12:34:25;;;;;;;8.95;3.85;;;;;;;12.48;43.29;100772.59;1770196;79;23137;-57
2021/10/18 12:37:06;;;;;;;9.03;3.83;;;;;;;12.51;42.89;100773.63;1727203;82;21106;-56
2021/10/18 12:39:42;;;;;;;7.62;4.00;;;;;;;12.49;43.09;100772.92;1765149;80;21103;-57
2021/10/18 12:42:31;;;;;;;7.28;3.90;;;;;;;12.44;43.03;100774.16;1765609;80;21111;-56
2021/10/18 12:45:07;;;;;;;9.93;4.12;;;;;;;12.44;43.35;100782.07;1765475;80;21031;-56
2021/10/18 12:47:38;;;;;;;9.43;4.40;;;;;;;12.47;43.58;100780.97;1761738;79;20991;-57
2021/10/18 12:50:17;;;;;;;8.23;3.60;;;;;;;12.45;43.68;100781.09;1740094;80;21023;-57
2021/10/18 12:52:56;;;;;;;10.03;4.33;;;;;;;12.43;43.40;100786.98;1761860;79;21050;-57
2021/10/18 12:55:34;;;;;;;8.53;4.25;;;;;;;12.41;43.79;100783.63;1740832;80;21091;-57